createdAt,value
2017-06-04T20:30:01.734Z,36.20
2017-06-04T20:32:29.254Z,36.20
2017-06-04T20:37:16.384Z,36.30
2017-06-04T20:39:48.218Z,36.00
2017-06-04T20:42:21.385Z,35.90
2017-06-04T20:44:48.926Z,36.60
2017-06-04T20:47:16.446Z,36.70
2017-06-04T20:49:43.997Z,36.50
2017-06-04T20:52:17.483Z,36.60
2017-06-04T20:54:45.030Z,36.50
2017-06-04T20:57:12.549Z,36.60
2017-06-04T20:59:40.091Z,36.90
2017-06-04T21:02:13.658Z,37.30
2017-06-04T21:04:41.293Z,37.40
2017-06-04T21:07:08.910Z,37.30
2017-06-04T21:09:36.516Z,37.40
2017-06-04T21:12:09.908Z,38.00
2017-06-04T21:14:37.444Z,37.60
2017-06-04T21:17:04.985Z,37.50
2017-06-04T21:19:32.538Z,37.60
2017-06-04T21:22:06.317Z,37.50
2017-06-04T21:24:33.899Z,37.70
2017-06-04T21:27:01.463Z,37.80
2017-06-04T21:29:29.111Z,37.90
2017-06-04T21:32:02.481Z,38.10
2017-06-04T21:34:30.023Z,38.20
2017-06-04T21:36:57.555Z,38.10
2017-06-04T21:39:25.104Z,38.60
2017-06-04T21:41:57.021Z,38.50
2017-06-04T21:44:24.590Z,38.40
2017-06-04T21:46:52.142Z,38.60
2017-06-04T21:49:19.724Z,38.70
2017-06-04T21:51:53.866Z,38.70
2017-06-04T21:54:21.394Z,38.80
2017-06-04T21:56:48.942Z,38.80
2017-06-04T21:59:16.479Z,39.00
2017-06-04T22:01:49.786Z,39.10
2017-06-04T22:04:17.302Z,39.10
2017-06-04T22:06:44.849Z,39.30
2017-06-04T22:09:12.372Z,39.10
2017-06-04T22:11:45.855Z,39.20
2017-06-04T22:14:13.373Z,39.60
2017-06-04T22:16:40.934Z,39.10
2017-06-04T22:19:08.455Z,39.40
2017-06-04T22:21:42.358Z,39.40
2017-06-04T22:24:09.894Z,39.30
2017-06-04T22:26:37.471Z,39.30
2017-06-04T22:29:05.075Z,39.50
2017-06-04T22:31:38.642Z,39.60
2017-06-04T22:34:06.189Z,39.70
2017-06-04T22:36:33.805Z,39.60
2017-06-04T22:39:01.418Z,39.90
2017-06-04T22:41:34.925Z,40.00
2017-06-04T22:44:02.470Z,39.90
2017-06-04T22:46:30.005Z,40.20
2017-06-04T22:48:57.550Z,40.30
2017-06-04T22:51:31.106Z,40.30
2017-06-04T22:53:58.653Z,40.40
2017-06-04T22:56:49.567Z,40.40
2017-06-04T22:59:23.366Z,40.40
2017-06-04T23:01:57.203Z,40.40
2017-06-04T23:04:26.370Z,40.50
2017-06-04T23:07:06.662Z,40.50
2017-06-04T23:09:49.353Z,40.50
2017-06-04T23:12:20.629Z,40.60
2017-06-04T23:14:48.170Z,40.50
2017-06-04T23:17:16.462Z,41.30
2017-06-04T23:19:45.055Z,40.60
2017-06-04T23:22:18.358Z,40.50
2017-06-04T23:24:45.992Z,40.50
2017-06-04T23:27:13.639Z,40.50
2017-06-04T23:29:41.235Z,40.60
2017-06-04T23:32:14.424Z,40.60
2017-06-04T23:34:41.969Z,40.70
2017-06-04T23:37:09.497Z,40.60
2017-06-04T23:39:37.037Z,40.80
2017-06-04T23:42:08.774Z,40.80
2017-06-04T23:44:36.327Z,40.70
2017-06-04T23:47:04.618Z,40.80
2017-06-04T23:49:38.614Z,40.70
2017-06-04T23:52:12.062Z,40.70
2017-06-04T23:54:39.659Z,40.80
2017-06-04T23:57:08.024Z,41.40
2017-06-04T23:59:35.615Z,40.70
